Time;durP1;ratioP1;P1;durP2;ratioP2;P2;SDS_P1;SDS_P2;PMS_P1;PMS_P2;Temp;Humidity;BMP_temperature;BMP_pressure;BME280_temperature;BME280_humidity;BME280_pressure;Samples;Min_cycle;Max_cycle;Signal;HPM_P1;HPM_P2
2022/04/08 00:00:38;;;;;;;11.07;6.53;;;4.30;99.90;;;;;;4971461;28;20141;-68
2022/04/08 00:03:06;;;;;;;9.30;5.78;;;4.30;99.90;;;;;;4969536;28;20512;-68
2022/04/08 00:05:33;;;;;;;14.65;7.10;;;4.30;99.90;;;;;;4968699;28;20384;-68
2022/04/08 00:08:00;;;;;;;10.38;7.65;;;4.30;99.90;;;;;;4970501;28;20109;-67
2022/04/08 00:10:27;;;;;;;15.63;7.15;;;4.30;99.90;;;;;;4970564;28;20097;-65
2022/04/08 00:12:54;;;;;;;11.30;6.72;;;4.30;99.90;;;;;;4966251;28;20173;-65
2022/04/08 00:15:21;;;;;;;12.45;6.70;;;4.30;99.90;;;;;;4970697;28;20038;-68
2022/04/08 00:17:48;;;;;;;17.77;7.00;;;4.30;99.90;;;;;;4970838;28;20074;-67
2022/04/08 00:20:15;;;;;;;11.07;6.28;;;4.40;99.90;;;;;;4971338;28;20135;-64
2022/04/08 00:22:43;;;;;;;11.38;7.25;;;4.40;99.90;;;;;;4972607;28;20074;-68
2022/04/08 00:25:10;;;;;;;16.05;7.53;;;4.40;99.90;;;;;;4971523;28;21461;-64
2022/04/08 00:27:38;;;;;;;16.90;7.28;;;4.40;99.90;;;;;;4966906;28;20053;-68
2022/04/08 00:30:06;;;;;;;14.57;7.40;;;4.40;99.90;;;;;;4969156;28;20055;-67
2022/04/08 00:32:34;;;;;;;11.02;8.00;;;4.50;99.90;;;;;;4969931;28;21437;-65
2022/04/08 00:35:01;;;;;;;12.60;8.10;;;4.50;99.90;;;;;;4966065;28;20218;-64
2022/04/08 00:37:28;;;;;;;11.73;7.22;;;4.50;99.90;;;;;;4977416;28;20141;-65
2022/04/08 00:39:55;;;;;;;14.35;7.40;;;4.50;99.90;;;;;;4968755;28;20411;-64
2022/04/08 00:42:21;;;;;;;16.75;8.25;;;4.50;99.90;;;;;;4973351;28;20049;-66
2022/04/08 00:44:48;;;;;;;16.85;8.20;;;4.50;99.90;;;;;;4963969;28;20129;-67
2022/04/08 00:47:15;;;;;;;15.45;7.72;;;4.50;99.90;;;;;;4975679;28;20050;-65
2022/04/08 00:49:42;;;;;;;16.02;7.78;;;4.50;99.90;;;;;;4966388;28;20066;-64
2022/04/08 00:52:10;;;;;;;23.02;8.35;;;4.50;99.90;;;;;;4970787;28;20149;-67
2022/04/08 00:54:37;;;;;;;15.10;7.40;;;4.50;99.90;;;;;;4968489;28;20043;-65
2022/04/08 00:57:04;;;;;;;14.60;7.68;;;4.60;99.90;;;;;;4970434;28;20042;-65
2022/04/08 00:59:32;;;;;;;15.35;6.95;;;4.50;99.90;;;;;;4968314;28;20046;-65
2022/04/08 01:01:59;;;;;;;9.23;6.70;;;4.60;99.90;;;;;;4968196;28;20456;-65
2022/04/08 01:04:29;;;;;;;9.82;7.05;;;4.60;99.90;;;;;;4969632;28;20145;-65
2022/04/08 01:06:56;;;;;;;12.43;8.13;;;4.60;99.90;;;;;;4964326;28;20082;-65
2022/04/08 01:09:24;;;;;;;11.10;7.32;;;4.60;99.90;;;;;;4971900;28;20141;-65
2022/04/08 01:11:51;;;;;;;15.18;7.13;;;4.60;99.90;;;;;;4970676;28;20141;-65
2022/04/08 01:14:18;;;;;;;18.42;7.43;;;4.60;99.90;;;;;;4977421;28;20168;-64
2022/04/08 01:16:45;;;;;;;11.15;7.60;;;4.60;99.90;;;;;;4971854;28;20385;-65
2022/04/08 01:19:12;;;;;;;14.60;7.10;;;4.60;99.90;;;;;;4970934;28;20081;-65
2022/04/08 01:21:39;;;;;;;19.80;7.57;;;4.50;99.90;;;;;;4970201;28;20743;-64
2022/04/08 01:24:13;;;;;;;10.18;5.47;;;4.60;99.90;;;;;;4968468;28;20065;-65
2022/04/08 01:26:41;;;;;;;9.48;5.28;;;4.60;99.90;;;;;;4969045;28;20098;-65
2022/04/08 01:29:08;;;;;;;12.35;6.25;;;4.60;99.90;;;;;;4967057;28;20088;-67
2022/04/08 01:31:35;;;;;;;17.27;5.55;;;4.60;99.90;;;;;;4975576;28;20105;-65
2022/04/08 01:34:02;;;;;;;7.82;6.63;;;4.50;99.90;;;;;;4967614;28;20046;-65
2022/04/08 01:36:29;;;;;;;7.30;4.80;;;4.50;99.90;;;;;;4970597;28;20065;-66
2022/04/08 01:38:56;;;;;;;7.68;4.70;;;4.50;99.90;;;;;;4966124;28;20137;-64
2022/04/08 01:41:23;;;;;;;13.60;6.05;;;4.50;99.90;;;;;;4972010;28;20086;-64
2022/04/08 01:43:49;;;;;;;10.50;5.82;;;4.50;99.90;;;;;;4965836;28;20058;-65
2022/04/08 01:46:16;;;;;;;10.20;3.90;;;4.50;99.90;;;;;;4973334;28;20181;-64
2022/04/08 01:48:43;;;;;;;13.55;4.80;;;4.50;99.90;;;;;;4972186;28;20081;-65
2022/04/08 01:51:10;;;;;;;8.82;5.30;;;4.50;99.90;;;;;;4972781;28;20058;-65
2022/04/08 01:53:38;;;;;;;11.10;4.05;;;4.50;99.90;;;;;;4965995;28;20133;-64
2022/04/08 01:56:05;;;;;;;4.95;3.63;;;4.50;99.90;;;;;;4966593;28;20144;-64
2022/04/08 01:58:32;;;;;;;11.95;4.25;;;4.50;99.90;;;;;;4963497;28;20146;-67
2022/04/08 02:01:01;;;;;;;6.30;3.50;;;4.50;99.90;;;;;;4971648;28;20252;-65
2022/04/08 02:03:29;;;;;;;9.15;3.50;;;4.50;99.90;;;;;;4965472;28;20587;-65
2022/04/08 02:05:56;;;;;;;10.93;4.68;;;4.50;99.90;;;;;;4972235;28;20068;-64
2022/04/08 02:08:23;;;;;;;13.10;3.63;;;4.50;99.90;;;;;;4967812;28;20145;-65
2022/04/08 02:10:50;;;;;;;9.07;3.30;;;4.50;99.90;;;;;;4963144;28;20488;-66
2022/04/08 02:13:17;;;;;;;9.93;3.80;;;4.50;99.90;;;;;;4967046;28;20101;-64
2022/04/08 02:15:46;;;;;;;10.75;3.35;;;4.50;99.90;;;;;;4978582;28;20105;-65
2022/04/08 02:18:14;;;;;;;14.65;5.10;;;4.50;99.90;;;;;;4974591;28;20153;-65
2022/04/08 02:20:42;;;;;;;10.10;3.92;;;4.50;99.90;;;;;;4961971;28;20043;-64
2022/04/08 02:23:09;;;;;;;8.85;2.92;;;4.50;99.90;;;;;;4974394;28;20046;-67
2022/04/08 02:25:36;;;;;;;10.88;5.03;;;4.50;99.90;;;;;;4970553;28;20133;-64
2022/04/08 02:28:04;;;;;;;11.38;4.47;;;4.50;99.90;;;;;;4969755;28;20110;-64
2022/04/08 02:30:31;;;;;;;9.30;3.67;;;4.50;99.90;;;;;;4964732;28;20136;-65
2022/04/08 02:33:01;;;;;;;8.52;2.50;;;4.60;99.90;;;;;;4967115;28;20373;-64
2022/04/08 02:35:32;;;;;;;5.40;3.53;;;4.60;99.90;;;;;;4965182;28;20137;-65
2022/04/08 02:37:59;;;;;;;5.57;2.03;;;4.60;99.90;;;;;;4966979;28;20050;-64
2022/04/08 02:40:25;;;;;;;3.33;2.72;;;4.60;99.90;;;;;;4967705;28;20060;-67
2022/04/08 02:42:52;;;;;;;7.65;3.00;;;4.50;99.90;;;;;;4964820;28;20035;-64
2022/04/08 02:45:19;;;;;;;6.65;4.20;;;4.50;99.90;;;;;;4978663;28;20725;-65
2022/04/08 02:47:46;;;;;;;7.68;3.53;;;4.60;99.90;;;;;;4974988;28;20046;-68
2022/04/08 02:50:13;;;;;;;5.30;2.75;;;4.50;99.90;;;;;;4975289;28;20169;-65
2022/04/08 02:52:40;;;;;;;11.55;3.72;;;4.50;99.90;;;;;;4975365;28;20141;-64
2022/04/08 02:55:08;;;;;;;4.97;2.60;;;4.50;99.90;;;;;;4971172;28;20541;-65
2022/04/08 02:57:44;;;;;;;8.20;4.28;;;4.50;99.90;;;;;;4969611;28;20058;-68
2022/04/08 03:00:21;;;;;;;5.72;2.80;;;4.50;99.90;;;;;;4967007;28;20177;-65
2022/04/08 03:02:49;;;;;;;12.20;2.65;;;4.50;99.90;;;;;;4963393;28;20117;-64
2022/04/08 03:05:16;;;;;;;13.93;3.53;;;4.50;99.90;;;;;;4996127;28;20085;-65
2022/04/08 03:07:43;;;;;;;7.03;3.72;;;4.50;99.90;;;;;;4968383;28;20562;-66
2022/04/08 03:10:11;;;;;;;10.23;3.38;;;4.50;99.90;;;;;;4976960;28;20047;-65
2022/04/08 03:12:38;;;;;;;9.23;3.05;;;4.50;99.90;;;;;;4964563;28;20161;-68
2022/04/08 03:15:05;;;;;;;5.40;3.72;;;4.50;99.90;;;;;;4969091;28;20053;-67
2022/04/08 03:17:34;;;;;;;7.15;3.72;;;4.40;99.90;;;;;;4967934;28;20793;-65
2022/04/08 03:20:01;;;;;;;5.88;2.63;;;4.40;99.90;;;;;;4966702;28;20082;-65
2022/04/08 03:22:27;;;;;;;10.18;3.38;;;4.40;99.90;;;;;;4971128;28;20189;-67
2022/04/08 03:24:54;;;;;;;14.27;3.40;;;4.40;99.90;;;;;;4965879;28;20043;-65
2022/04/08 03:27:21;;;;;;;14.88;3.60;;;4.40;99.90;;;;;;4970400;28;20077;-65
2022/04/08 03:29:48;;;;;;;8.65;3.33;;;4.40;99.90;;;;;;4965602;28;20055;-67
2022/04/08 03:32:15;;;;;;;13.50;4.00;;;4.40;99.90;;;;;;4967065;28;20224;-65
2022/04/08 03:34:42;;;;;;;8.23;4.93;;;4.40;99.90;;;;;;4966168;28;20417;-65
2022/04/08 03:37:10;;;;;;;9.02;3.25;;;4.40;99.90;;;;;;4976220;28;20219;-67
2022/04/08 03:39:37;;;;;;;6.90;4.70;;;4.40;99.90;;;;;;4970768;28;20062;-64
2022/04/08 03:42:06;;;;;;;12.93;5.20;;;4.40;99.90;;;;;;4974500;28;20042;-67
2022/04/08 03:44:33;;;;;;;6.35;3.85;;;4.40;99.90;;;;;;4966797;28;20419;-67
2022/04/08 03:46:59;;;;;;;9.35;6.18;;;4.40;99.90;;;;;;4973806;28;20137;-64
2022/04/08 03:49:26;;;;;;;7.22;3.47;;;4.30;99.90;;;;;;4967869;28;20078;-67
2022/04/08 03:51:54;;;;;;;16.25;4.00;;;4.30;99.90;;;;;;4965174;28;20055;-72
2022/04/08 03:54:22;;;;;;;9.93;4.88;;;4.40;99.90;;;;;;4967158;28;20137;-66
2022/04/08 03:56:49;;;;;;;9.95;3.08;;;4.40;99.90;;;;;;4968153;28;20172;-66
2022/04/08 03:59:16;;;;;;;5.43;3.72;;;4.30;99.90;;;;;;4971371;28;20095;-67
2022/04/08 04:01:43;;;;;;;7.88;3.22;;;4.40;99.90;;;;;;4968333;28;20066;-66
2022/04/08 04:04:10;;;;;;;9.13;3.83;;;4.30;99.90;;;;;;4968349;28;20047;-65
2022/04/08 04:06:37;;;;;;;8.05;3.28;;;4.40;99.90;;;;;;4968680;28;20127;-68
2022/04/08 04:09:04;;;;;;;8.27;3.80;;;4.30;99.90;;;;;;4974130;28;20109;-65
2022/04/08 04:11:32;;;;;;;6.82;3.40;;;4.40;99.90;;;;;;4969609;28;20133;-65
2022/04/08 04:14:00;;;;;;;10.63;3.10;;;4.40;99.90;;;;;;4977199;28;20073;-66
2022/04/08 04:16:27;;;;;;;10.30;3.28;;;4.30;99.90;;;;;;4968303;28;20149;-64
2022/04/08 04:18:54;;;;;;;6.63;2.40;;;4.30;99.90;;;;;;4973284;28;20101;-64
2022/04/08 04:21:21;;;;;;;5.95;2.42;;;4.30;99.90;;;;;;4966717;28;20414;-66
2022/04/08 04:23:48;;;;;;;10.70;2.83;;;4.30;99.90;;;;;;4968711;28;20488;-64
2022/04/08 04:26:15;;;;;;;5.28;2.13;;;4.30;99.90;;;;;;4969016;28;20062;-67
2022/04/08 04:28:41;;;;;;;7.07;2.75;;;4.30;99.90;;;;;;4972361;28;20134;-67
2022/04/08 04:31:09;;;;;;;8.10;2.40;;;4.30;99.90;;;;;;4974728;28;20038;-64
2022/04/08 04:33:36;;;;;;;5.97;2.42;;;4.30;99.90;;;;;;4976613;28;20092;-65
2022/04/08 04:36:03;;;;;;;6.13;2.05;;;4.30;99.90;;;;;;4969785;28;20150;-67
2022/04/08 04:38:29;;;;;;;9.63;2.47;;;4.30;99.90;;;;;;4967722;28;20165;-66
2022/04/08 04:40:56;;;;;;;3.65;2.28;;;4.30;99.90;;;;;;4969515;28;20133;-64
2022/04/08 04:43:23;;;;;;;4.95;2.25;;;4.30;99.90;;;;;;4975101;28;20565;-66
2022/04/08 04:45:50;;;;;;;5.68;3.67;;;4.30;99.90;;;;;;4968920;28;20164;-63
2022/04/08 04:48:18;;;;;;;3.50;2.45;;;4.40;99.90;;;;;;4969027;28;20073;-65
2022/04/08 04:50:46;;;;;;;6.05;2.30;;;4.40;99.90;;;;;;4967306;28;20467;-64
2022/04/08 04:53:14;;;;;;;4.20;2.47;;;4.40;99.90;;;;;;4977219;28;20249;-64
2022/04/08 04:55:40;;;;;;;5.05;2.80;;;4.40;99.90;;;;;;4966601;28;20572;-64
2022/04/08 04:58:07;;;;;;;5.63;2.78;;;4.50;99.90;;;;;;4969179;28;20050;-67
2022/04/08 05:00:34;;;;;;;5.88;2.90;;;4.40;99.90;;;;;;4977926;28;20810;-64
2022/04/08 05:03:01;;;;;;;5.22;2.47;;;4.50;99.90;;;;;;4969680;28;20483;-64
2022/04/08 05:05:28;;;;;;;7.63;2.75;;;4.50;99.90;;;;;;4969344;28;20058;-67
2022/04/08 05:07:55;;;;;;;7.70;2.92;;;4.50;99.90;;;;;;4970380;28;20737;-64
2022/04/08 05:10:22;;;;;;;9.23;3.17;;;4.50;99.90;;;;;;4973350;28;20132;-64
2022/04/08 05:12:48;;;;;;;6.28;3.13;;;4.50;99.90;;;;;;4969841;28;20126;-67
2022/04/08 05:15:15;;;;;;;5.20;3.03;;;4.50;99.90;;;;;;4968263;28;20058;-64
2022/04/08 05:17:44;;;;;;;9.57;3.78;;;4.60;99.90;;;;;;4967869;28;20114;-64
2022/04/08 05:20:11;;;;;;;5.85;2.83;;;4.60;99.90;;;;;;4966615;28;20065;-66
2022/04/08 05:22:38;;;;;;;8.75;4.63;;;4.50;99.90;;;;;;4978384;28;20404;-64
2022/04/08 05:25:05;;;;;;;5.45;2.63;;;4.50;99.90;;;;;;4973445;28;20062;-63
2022/04/08 05:27:37;;;;;;;7.57;3.85;;;4.50;99.90;;;;;;4974382;28;20821;-67
2022/04/08 05:30:06;;;;;;;9.48;3.45;;;4.50;99.90;;;;;;4966574;28;20089;-64
2022/04/08 05:32:33;;;;;;;12.30;4.90;;;4.60;99.90;;;;;;4971717;28;20066;-66
2022/04/08 05:35:00;;;;;;;10.85;3.10;;;4.60;99.90;;;;;;4976857;28;20166;-65
2022/04/08 05:37:28;;;;;;;7.57;2.72;;;4.60;99.90;;;;;;4967920;28;20121;-65
2022/04/08 05:39:56;;;;;;;5.32;2.80;;;4.50;99.90;;;;;;4968567;28;20515;-67
2022/04/08 05:42:23;;;;;;;4.18;3.03;;;4.50;99.90;;;;;;4967527;28;20166;-66
2022/04/08 05:44:49;;;;;;;5.68;3.90;;;4.50;99.90;;;;;;4966190;28;20057;-66
2022/04/08 05:47:16;;;;;;;5.78;3.08;;;4.50;99.90;;;;;;4966945;28;20517;-67
2022/04/08 05:49:43;;;;;;;6.13;2.45;;;4.50;99.90;;;;;;4971164;28;20399;-65
2022/04/08 05:52:10;;;;;;;1.70;0.32;;;4.40;99.90;;;;;;4970472;28;20134;-66
2022/04/08 05:54:37;;;;;;;0.25;0.10;;;3.40;99.90;;;;;;4964595;28;20137;-64
2022/04/08 05:57:04;;;;;;;1.75;0.20;;;2.90;99.90;;;;;;4969960;28;20093;-65
2022/04/08 05:59:33;;;;;;;3.58;0.85;;;2.70;99.90;;;;;;4971815;28;20078;-66
2022/04/08 06:01:59;;;;;;;1.00;0.40;;;2.50;99.90;;;;;;4965467;28;20479;-66
2022/04/08 06:04:26;;;;;;;0.68;0.22;;;2.40;99.90;;;;;;4965768;28;20251;-65
2022/04/08 06:06:54;;;;;;;0.28;0.25;;;2.40;99.90;;;;;;4963129;28;20125;-64
2022/04/08 06:09:21;;;;;;;4.57;0.52;;;2.40;99.90;;;;;;4967612;28;20046;-66
2022/04/08 06:11:48;;;;;;;0.70;0.43;;;2.40;99.90;;;;;;4967534;28;20082;-65
2022/04/08 06:14:16;;;;;;;1.88;0.22;;;2.30;99.90;;;;;;4973785;28;20227;-65
2022/04/08 06:16:43;;;;;;;1.27;1.17;;;2.40;99.90;;;;;;4973299;28;20053;-65
2022/04/08 06:19:10;;;;;;;2.38;0.55;;;2.40;99.90;;;;;;4975937;28;20547;-67
2022/04/08 06:21:36;;;;;;;2.92;0.68;;;2.40;99.90;;;;;;4966373;28;20061;-65
2022/04/08 06:24:04;;;;;;;3.65;0.57;;;2.40;99.90;;;;;;4972509;28;20152;-65
2022/04/08 06:26:32;;;;;;;2.95;0.40;;;2.40;99.90;;;;;;4969662;28;20122;-65
2022/04/08 06:29:00;;;;;;;1.17;0.10;;;2.40;99.90;;;;;;4966627;28;20134;-63
2022/04/08 06:31:29;;;;;;;0.63;0.30;;;2.50;99.90;;;;;;4964754;28;20270;-64
2022/04/08 06:33:58;;;;;;;2.33;0.63;;;2.50;99.90;;;;;;4966287;28;20112;-64
2022/04/08 06:36:27;;;;;;;1.63;0.30;;;2.60;99.90;;;;;;4966770;28;20050;-67
2022/04/08 06:38:54;;;;;;;0.32;0.22;;;2.60;99.90;;;;;;4970330;28;20145;-64
2022/04/08 06:41:21;;;;;;;1.95;0.25;;;2.70;99.90;;;;;;4971861;28;20153;-65
2022/04/08 06:43:48;;;;;;;0.70;0.20;;;2.80;99.90;;;;;;4967588;28;20050;-64
2022/04/08 06:46:15;;;;;;;0.13;0.13;;;2.80;99.90;;;;;;4970264;28;20061;-67
2022/04/08 06:48:42;;;;;;;1.10;0.20;;;2.70;99.90;;;;;;4968477;28;20906;-66
2022/04/08 06:51:09;;;;;;;1.08;0.35;;;2.70;99.90;;;;;;4968927;28;20054;-64
2022/04/08 06:53:41;;;;;;;2.90;0.38;;;2.60;99.90;;;;;;4968653;28;20093;-67
2022/04/08 06:56:08;;;;;;;2.42;0.10;;;2.60;99.90;;;;;;4968560;28;20051;-65
2022/04/08 06:58:38;;;;;;;0.90;0.30;;;2.50;99.90;;;;;;4964379;28;20156;-67
2022/04/08 07:01:06;;;;;;;0.55;0.52;;;2.50;99.90;;;;;;4966875;28;20105;-66
2022/04/08 07:03:34;;;;;;;2.45;0.20;;;2.50;99.90;;;;;;4970143;28;20051;-68
2022/04/08 07:06:01;;;;;;;0.45;0.20;;;2.60;99.90;;;;;;4968903;28;20058;-65
2022/04/08 07:08:28;;;;;;;2.30;0.40;;;2.50;99.90;;;;;;4977836;28;20773;-69
2022/04/08 07:10:55;;;;;;;0.63;0.45;;;2.40;99.90;;;;;;4963845;28;20050;-65
2022/04/08 07:13:21;;;;;;;0.35;0.20;;;2.30;99.90;;;;;;4965835;28;20133;-65
2022/04/08 07:15:48;;;;;;;1.00;0.30;;;2.10;99.90;;;;;;4975302;28;20055;-67
2022/04/08 07:18:15;;;;;;;0.88;0.40;;;2.10;99.90;;;;;;4969202;28;20058;-65
2022/04/08 07:20:42;;;;;;;0.20;0.20;;;2.00;99.90;;;;;;4974655;28;20073;-67
2022/04/08 07:23:09;;;;;;;1.83;0.60;;;2.00;99.90;;;;;;4967562;28;20411;-68
2022/04/08 07:25:36;;;;;;;2.17;0.45;;;2.10;99.90;;;;;;4967519;28;20054;-65
2022/04/08 07:28:04;;;;;;;2.38;0.47;;;2.10;99.90;;;;;;4971754;28;20483;-68
2022/04/08 07:30:31;;;;;;;1.13;0.68;;;2.10;99.90;;;;;;4969782;28;20172;-68
2022/04/08 07:33:00;;;;;;;0.70;0.47;;;2.10;99.90;;;;;;4968102;28;20230;-65
2022/04/08 07:35:27;;;;;;;1.77;1.57;;;2.20;99.90;;;;;;4971040;28;20137;-66
2022/04/08 07:37:54;;;;;;;0.70;0.47;;;2.30;99.90;;;;;;4975178;28;20154;-68
2022/04/08 07:40:21;;;;;;;1.00;0.57;;;2.30;99.90;;;;;;4970451;28;20043;-63
2022/04/08 07:42:49;;;;;;;2.67;0.60;;;2.20;99.90;;;;;;4969553;28;20055;-64
2022/04/08 07:45:17;;;;;;;2.47;0.77;;;2.20;99.90;;;;;;4973976;28;20480;-66
2022/04/08 07:47:44;;;;;;;3.13;1.20;;;2.20;99.90;;;;;;4974536;28;20046;-64
2022/04/08 07:50:13;;;;;;;3.08;0.55;;;2.20;99.90;;;;;;4970101;28;20575;-68
2022/04/08 07:52:40;;;;;;;2.35;0.70;;;2.30;99.90;;;;;;4971247;28;20046;-65
2022/04/08 07:55:08;;;;;;;0.90;0.47;;;2.30;99.90;;;;;;4978860;28;20054;-64
2022/04/08 07:57:48;;;;;;;0.80;0.50;;;2.20;99.90;;;;;;4970292;28;20154;-68
2022/04/08 08:00:21;;;;;;;1.70;0.80;;;2.30;99.90;;;;;;4975052;28;20176;-65
2022/04/08 08:02:49;;;;;;;2.88;0.40;;;2.30;99.90;;;;;;4966298;28;20097;-65
2022/04/08 08:05:17;;;;;;;1.85;0.40;;;2.40;99.90;;;;;;4969310;28;21484;-64
2022/04/08 08:07:54;;;;;;;2.20;0.35;;;2.40;99.90;;;;;;4971033;28;20078;-64
2022/04/08 08:10:23;;;;;;;1.23;0.98;;;2.40;99.90;;;;;;4984559;28;20042;-64
2022/04/08 08:12:51;;;;;;;2.10;0.55;;;2.40;99.90;;;;;;4979688;28;20632;-65
2022/04/08 08:15:19;;;;;;;1.95;1.40;;;2.50;99.90;;;;;;4985043;28;20061;-64
2022/04/08 08:17:46;;;;;;;2.00;0.63;;;2.50;99.90;;;;;;4985693;28;20192;-63
2022/04/08 08:20:15;;;;;;;1.20;0.75;;;2.50;99.90;;;;;;4974175;28;20065;-64
2022/04/08 08:22:43;;;;;;;2.03;0.80;;;2.50;99.90;;;;;;4972011;28;20159;-64
2022/04/08 08:25:11;;;;;;;1.60;0.80;;;2.60;99.90;;;;;;4978776;28;20172;-67
2022/04/08 08:27:41;;;;;;;0.95;0.60;;;2.50;99.90;;;;;;4968040;28;20049;-64
2022/04/08 08:30:10;;;;;;;4.65;2.45;;;2.50;99.90;;;;;;4971932;28;20149;-64
2022/04/08 08:32:38;;;;;;;1.67;0.80;;;2.60;99.90;;;;;;4965663;28;20050;-66
2022/04/08 08:35:09;;;;;;;1.27;0.90;;;2.50;99.90;;;;;;4978567;28;20507;-65
2022/04/08 08:37:36;;;;;;;2.90;0.70;;;2.50;99.90;;;;;;4985661;28;20109;-65
2022/04/08 08:40:04;;;;;;;1.90;1.25;;;2.50;99.90;;;;;;4971842;28;20090;-64
2022/04/08 08:42:34;;;;;;;3.20;0.88;;;2.50;99.90;;;;;;4981040;28;20497;-67
2022/04/08 08:45:01;;;;;;;2.05;0.55;;;2.50;99.90;;;;;;4977761;28;20077;-65
2022/04/08 08:47:30;;;;;;;1.08;0.57;;;2.50;99.90;;;;;;4979301;28;20489;-63
2022/04/08 08:49:57;;;;;;;0.52;0.52;;;2.50;99.90;;;;;;4983791;28;20150;-63
2022/04/08 08:52:24;;;;;;;0.95;0.60;;;2.50;99.90;;;;;;4977274;28;20793;-65
2022/04/08 08:54:51;;;;;;;1.92;1.02;;;2.60;99.90;;;;;;4967363;28;20065;-67
2022/04/08 08:57:20;;;;;;;1.30;0.75;;;2.70;99.90;;;;;;4974665;28;20086;-63
2022/04/08 08:59:51;;;;;;;3.53;0.60;;;2.70;99.90;;;;;;4976593;28;20129;-64
2022/04/08 09:02:21;;;;;;;1.02;0.50;;;2.90;99.90;;;;;;4980259;28;20430;-65
2022/04/08 09:04:51;;;;;;;2.72;0.90;;;3.00;99.90;;;;;;4967543;28;20536;-64
2022/04/08 09:07:25;;;;;;;3.03;0.82;;;3.00;99.90;;;;;;4974654;28;20460;-65
2022/04/08 09:09:53;;;;;;;3.60;0.65;;;3.00;99.90;;;;;;4985552;28;20451;-66
2022/04/08 09:12:24;;;;;;;4.07;1.15;;;3.10;99.90;;;;;;4977786;28;20689;-64
2022/04/08 09:14:56;;;;;;;3.38;1.33;;;3.20;99.90;;;;;;4966511;28;20156;-67
2022/04/08 09:17:26;;;;;;;2.47;0.77;;;3.20;99.90;;;;;;4971528;28;20142;-67
2022/04/08 09:19:55;;;;;;;3.70;0.82;;;3.10;99.90;;;;;;4966841;28;20047;-67
2022/04/08 09:22:27;;;;;;;1.52;0.80;;;3.00;99.90;;;;;;4976666;28;20530;-65
2022/04/08 09:24:54;;;;;;;1.80;0.80;;;2.90;99.90;;;;;;4969793;28;20230;-64
2022/04/08 09:27:32;;;;;;;2.13;0.60;;;2.80;99.90;;;;;;4972323;28;20153;-64
2022/04/08 09:29:59;;;;;;;2.05;0.75;;;2.60;99.90;;;;;;4971494;28;20053;-63
2022/04/08 09:32:32;;;;;;;2.05;0.70;;;2.50;99.90;;;;;;4971485;28;20057;-64
2022/04/08 09:35:00;;;;;;;2.33;0.75;;;2.50;99.90;;;;;;4970719;28;20752;-63
2022/04/08 09:37:28;;;;;;;4.25;1.02;;;2.40;99.90;;;;;;4978479;28;20051;-64
2022/04/08 09:39:56;;;;;;;0.60;0.60;;;2.40;99.90;;;;;;4974753;28;20046;-66
2022/04/08 09:42:24;;;;;;;1.20;0.98;;;2.30;99.90;;;;;;4974461;28;20388;-63
2022/04/08 09:44:51;;;;;;;2.65;0.98;;;2.30;99.90;;;;;;4978259;28;20047;-67
2022/04/08 09:47:18;;;;;;;8.50;1.27;;;2.30;99.90;;;;;;4965788;28;20046;-64
2022/04/08 09:49:45;;;;;;;1.88;0.70;;;2.40;99.90;;;;;;4974118;28;20638;-65
2022/04/08 09:52:16;;;;;;;0.82;0.82;;;2.40;99.90;;;;;;4973325;28;20133;-65
2022/04/08 09:54:44;;;;;;;0.63;0.63;;;2.30;99.90;;;;;;4973287;28;20384;-65
2022/04/08 09:57:17;;;;;;;3.60;0.93;;;2.30;99.90;;;;;;4968942;28;20499;-66
2022/04/08 09:59:46;;;;;;;3.55;0.90;;;2.20;99.90;;;;;;4975103;28;20497;-67
2022/04/08 10:02:23;;;;;;;2.47;0.60;;;2.20;99.90;;;;;;4970847;28;20132;-66
2022/04/08 10:05:03;;;;;;;2.45;0.88;;;2.30;99.90;;;;;;4974485;28;20054;-66
2022/04/08 10:07:31;;;;;;;4.80;1.13;;;2.30;99.90;;;;;;4974186;28;20046;-64
2022/04/08 10:10:21;;;;;;;7.32;1.27;;;2.30;99.90;;;;;;4982790;28;20417;-64
2022/04/08 10:13:03;;;;;;;3.25;0.80;;;2.40;99.90;;;;;;4978129;28;20177;-64
2022/04/08 10:15:44;;;;;;;7.90;2.55;;;2.40;99.90;;;;;;4963014;28;20535;-67
2022/04/08 10:18:11;;;;;;;6.75;1.13;;;2.40;99.90;;;;;;4971252;28;20047;-65
2022/04/08 10:20:38;;;;;;;2.20;1.60;;;2.40;99.90;;;;;;4966819;28;20050;-63
2022/04/08 10:23:14;;;;;;;1.20;0.80;;;2.50;99.90;;;;;;4970140;28;20125;-65
2022/04/08 10:25:48;;;;;;;0.80;0.80;;;2.50;99.90;;;;;;4968123;28;20045;-65
2022/04/08 10:28:19;;;;;;;1.25;0.80;;;2.40;99.90;;;;;;4972903;28;20102;-65
2022/04/08 10:30:48;;;;;;;2.22;1.10;;;2.40;99.90;;;;;;4967709;28;20146;-64
2022/04/08 10:33:26;;;;;;;3.70;0.68;;;2.30;99.90;;;;;;4975227;28;20137;-65
2022/04/08 10:36:04;;;;;;;1.98;0.70;;;2.30;99.90;;;;;;4973104;28;20165;-63
2022/04/08 10:38:36;;;;;;;4.63;1.33;;;2.40;99.90;;;;;;4976519;28;20038;-64
2022/04/08 10:41:08;;;;;;;3.13;0.90;;;2.40;99.90;;;;;;4966767;28;20069;-65
2022/04/08 10:43:43;;;;;;;3.13;1.23;;;2.40;99.90;;;;;;4966835;28;20043;-64
2022/04/08 10:46:10;;;;;;;4.95;0.75;;;2.30;99.90;;;;;;4966322;28;20109;-64
2022/04/08 10:48:37;;;;;;;5.57;1.30;;;2.30;99.90;;;;;;4963824;28;20454;-65
2022/04/08 10:51:11;;;;;;;3.00;1.27;;;2.50;99.90;;;;;;4964324;28;20059;-64
2022/04/08 10:53:43;;;;;;;2.53;1.05;;;2.60;99.90;;;;;;4971786;28;20093;-64
2022/04/08 10:56:14;;;;;;;4.22;1.33;;;2.70;99.90;;;;;;4973872;28;20260;-64
2022/04/08 10:58:50;;;;;;;1.88;0.90;;;2.80;99.90;;;;;;4970626;28;20081;-65
2022/04/08 11:01:23;;;;;;;4.57;1.52;;;2.80;99.90;;;;;;4971076;28;20125;-64
2022/04/08 11:04:02;;;;;;;3.75;1.80;;;2.80;99.90;;;;;;4975705;28;20075;-64
2022/04/08 11:06:31;;;;;;;2.05;1.02;;;2.80;99.90;;;;;;4978096;28;20043;-65
2022/04/08 11:09:09;;;;;;;4.47;1.38;;;2.80;99.90;;;;;;4976471;28;20130;-64
2022/04/08 11:11:38;;;;;;;3.40;0.80;;;2.80;99.90;;;;;;4985830;28;20692;-65
2022/04/08 11:14:06;;;;;;;1.63;0.90;;;2.80;99.90;;;;;;4985444;28;20097;-63
2022/04/08 11:16:36;;;;;;;4.43;1.20;;;2.80;99.90;;;;;;4982742;28;20481;-66
2022/04/08 11:19:07;;;;;;;3.10;2.17;;;2.80;99.90;;;;;;4985708;28;20594;-64
2022/04/08 11:21:35;;;;;;;4.05;1.42;;;2.70;99.90;;;;;;4985194;28;20820;-65
2022/04/08 11:24:05;;;;;;;0.95;0.82;;;2.70;99.90;;;;;;4980335;28;20414;-64
2022/04/08 11:26:47;;;;;;;7.05;0.98;;;2.60;99.90;;;;;;4985762;28;20062;-67
2022/04/08 11:29:23;;;;;;;1.10;0.80;;;2.60;99.90;;;;;;4978670;28;20054;-64
2022/04/08 11:31:52;;;;;;;1.13;0.75;;;2.60;99.90;;;;;;4983402;28;20063;-65
2022/04/08 11:34:25;;;;;;;2.70;1.02;;;2.70;99.90;;;;;;4990562;28;20046;-63
2022/04/08 11:36:54;;;;;;;2.03;1.20;;;2.70;99.90;;;;;;4977453;28;20125;-65
2022/04/08 11:39:22;;;;;;;6.57;0.80;;;2.80;99.90;;;;;;4980277;28;20679;-65
2022/04/08 11:41:55;;;;;;;4.47;1.23;;;2.80;99.90;;;;;;4964719;28;20321;-64
2022/04/08 11:44:22;;;;;;;3.33;0.88;;;2.90;99.90;;;;;;4980003;28;20138;-64
2022/04/08 11:46:50;;;;;;;6.53;2.15;;;2.90;99.90;;;;;;4979510;28;20851;-64
2022/04/08 11:49:24;;;;;;;3.47;1.23;;;2.90;99.90;;;;;;4975632;28;20057;-64
2022/04/08 11:52:01;;;;;;;5.18;2.08;;;3.00;99.90;;;;;;4975116;28;20042;-66
2022/04/08 11:54:28;;;;;;;3.40;0.88;;;3.00;99.90;;;;;;4979345;28;20070;-64
2022/04/08 11:56:55;;;;;;;4.75;0.68;;;3.00;99.90;;;;;;4976330;28;20046;-64
2022/04/08 11:59:22;;;;;;;5.78;1.33;;;3.10;99.90;;;;;;4991585;28;20425;-64
2022/04/08 12:01:49;;;;;;;5.55;1.75;;;3.10;99.90;;;;;;4983433;28;20452;-65
2022/04/08 12:04:19;;;;;;;4.03;2.05;;;3.20;99.90;;;;;;4968975;28;20660;-66
2022/04/08 12:06:48;;;;;;;3.03;0.90;;;3.20;99.90;;;;;;4974132;28;20505;-63
2022/04/08 12:09:17;;;;;;;6.65;1.02;;;3.20;99.90;;;;;;4974212;28;20050;-64
2022/04/08 12:11:47;;;;;;;1.50;1.02;;;3.30;99.90;;;;;;4972267;28;20054;-64
2022/04/08 12:14:19;;;;;;;1.98;0.70;;;3.30;99.90;;;;;;4969432;28;20189;-64
2022/04/08 12:16:48;;;;;;;1.13;0.50;;;3.30;99.90;;;;;;4965268;28;20796;-63
2022/04/08 12:19:17;;;;;;;4.35;1.65;;;3.30;99.90;;;;;;4975161;28;20043;-63
2022/04/08 12:22:07;;;;;;;0.80;0.70;;;3.30;99.90;;;;;;4979856;28;20078;-64
2022/04/08 12:24:34;;;;;;;2.25;0.75;;;3.30;99.90;;;;;;4978579;28;20050;-64
2022/04/08 12:27:11;;;;;;;2.30;1.17;;;3.30;99.90;;;;;;4982206;28;20141;-64
2022/04/08 12:29:39;;;;;;;4.18;0.85;;;3.40;99.90;;;;;;5002159;28;20046;-63
2022/04/08 12:32:13;;;;;;;4.25;0.88;;;3.60;99.90;;;;;;4971486;28;20150;-65
2022/04/08 12:34:43;;;;;;;4.28;0.88;;;3.80;99.90;;;;;;4974273;28;20659;-65
2022/04/08 12:37:10;;;;;;;1.27;0.95;;;3.90;99.90;;;;;;4981096;28;20085;-64
2022/04/08 12:39:37;;;;;;;6.88;1.20;;;3.90;99.90;;;;;;4973385;28;20133;-67
2022/04/08 12:42:06;;;;;;;6.88;1.42;;;3.90;99.90;;;;;;4974441;28;20047;-64
2022/04/08 12:44:33;;;;;;;4.65;3.13;;;3.90;99.90;;;;;;4969406;28;20135;-67
2022/04/08 12:47:00;;;;;;;2.30;1.15;;;3.90;99.90;;;;;;4971730;28;20461;-66
2022/04/08 12:49:26;;;;;;;2.20;0.80;;;4.20;99.90;;;;;;4973667;28;20066;-64
2022/04/08 12:51:53;;;;;;;6.10;1.13;;;4.30;99.90;;;;;;4967242;28;20078;-64
2022/04/08 12:54:20;;;;;;;6.55;1.67;;;4.30;99.90;;;;;;4974094;28;20053;-66
2022/04/08 12:56:47;;;;;;;3.13;0.85;;;4.30;99.90;;;;;;4979692;28;20169;-63
2022/04/08 12:59:14;;;;;;;2.17;1.45;;;4.20;99.90;;;;;;4970970;28;20078;-63
2022/04/08 13:01:42;;;;;;;4.88;0.90;;;4.30;99.90;;;;;;4968036;28;20047;-68